Time;durP1;ratioP1;P1;durP2;ratioP2;P2;SDS_P1;SDS_P2;PMS_P1;PMS_P2;Temp;Humidity;BMP_temperature;BMP_pressure;BME280_temperature;BME280_humidity;BME280_pressure;Samples;Min_cycle;Max_cycle;Signal;HPM_P1;HPM_P2
2022/04/21 00:00:22;;;;;;;;;;;7.00;99.90;;;;;;5051318;28;19925;-48
2022/04/21 00:02:50;;;;;;;;;;;7.00;99.90;;;;;;5052898;28;20019;-47
2022/04/21 00:05:18;;;;;;;;;;;7.00;99.90;;;;;;5048502;28;19978;-47
2022/04/21 00:07:47;;;;;;;;;;;6.90;99.90;;;;;;5053794;28;20024;-48
2022/04/21 00:10:14;;;;;;;;;;;6.90;99.90;;;;;;5055396;28;21876;-48
2022/04/21 00:12:40;;;;;;;;;;;7.00;99.90;;;;;;5071997;28;19928;-49
2022/04/21 00:15:08;;;;;;;;;;;7.10;99.90;;;;;;5053812;28;19925;-48
2022/04/21 00:17:34;;;;;;;;;;;7.10;99.90;;;;;;5053074;28;19978;-48
2022/04/21 00:20:03;;;;;;;;;;;7.20;99.90;;;;;;5053649;28;20085;-48
2022/04/21 00:25:15;;;;;;;;;;;7.20;99.90;;;;;;5049486;28;20409;-48
2022/04/21 00:27:42;;;;;;;;;;;7.20;99.90;;;;;;5051529;28;20437;-47
2022/04/21 00:30:10;;;;;;;;;;;7.20;99.90;;;;;;5044339;28;19924;-49
2022/04/21 00:32:38;;;;;;;;;;;7.10;99.90;;;;;;5053105;28;19928;-47
2022/04/21 00:35:07;;;;;;;;;;;7.10;99.90;;;;;;5053030;28;19925;-48
2022/04/21 00:37:34;;;;;;;;;;;7.00;99.90;;;;;;5065210;28;19925;-48
2022/04/21 00:40:01;;;;;;;;;;;7.00;99.90;;;;;;5062664;28;19929;-48
2022/04/21 00:42:27;;;;;;;;;;;7.00;99.90;;;;;;5050337;28;19925;-47
2022/04/21 00:44:54;;;;;;;;;;;7.00;99.90;;;;;;5050180;28;19986;-48
2022/04/21 00:47:21;;;;;;;;;;;7.00;99.90;;;;;;5056492;28;19994;-48
2022/04/21 00:49:48;;;;;;;;;;;6.90;99.90;;;;;;5052369;28;20353;-47
2022/04/21 00:52:17;;;;;;;;;;;6.90;99.90;;;;;;5046684;28;19925;-47
2022/04/21 00:54:44;;;;;;;;;;;6.80;99.90;;;;;;5048409;28;19925;-48
2022/04/21 00:57:11;;;;;;;;;;;6.80;99.90;;;;;;5044014;28;19929;-47
2022/04/21 00:59:38;;;;;;;;;;;6.80;99.90;;;;;;5051240;28;19924;-46
2022/04/21 01:04:51;;;;;;;;;;;6.80;99.90;;;;;;5050905;28;19928;-48
2022/04/21 01:07:20;;;;;;;;;;;6.70;99.90;;;;;;5048566;28;19979;-49
2022/04/21 01:09:47;;;;;;;;;;;6.70;99.90;;;;;;5052447;28;20349;-47
2022/04/21 01:12:14;;;;;;;;;;;6.60;99.90;;;;;;5050386;28;19925;-48
2022/04/21 01:14:40;;;;;;;;;;;6.60;99.90;;;;;;5049165;28;19928;-49
2022/04/21 01:17:08;;;;;;;;;;;6.60;99.90;;;;;;5051615;28;19979;-48
2022/04/21 01:19:35;;;;;;;;;;;6.60;99.90;;;;;;5051635;28;19960;-48
2022/04/21 01:22:03;;;;;;;;;;;6.60;99.90;;;;;;5044319;28;20456;-49
2022/04/21 01:24:30;;;;;;;;;;;6.60;99.90;;;;;;5050616;28;20280;-48
2022/04/21 01:26:57;;;;;;;;;;;6.50;99.90;;;;;;5051066;28;20405;-48
2022/04/21 01:29:24;;;;;;;;;;;6.50;99.90;;;;;;5050141;28;20563;-48
2022/04/21 01:31:51;;;;;;;;;;;6.50;99.90;;;;;;5051264;28;19932;-49
2022/04/21 01:34:18;;;;;;;;;;;6.40;99.90;;;;;;5052160;28;19925;-47
2022/04/21 01:42:14;;;;;;;;;;;6.30;99.90;;;;;;5042498;28;20406;-48
2022/04/21 01:44:41;;;;;;;;;;;6.20;99.90;;;;;;5051132;28;19925;-48
2022/04/21 01:47:08;;;;;;;;;;;6.20;99.90;;;;;;5050938;28;19924;-47
2022/04/21 01:49:34;;;;;;;;;;;6.20;99.90;;;;;;5051146;28;19924;-48
2022/04/21 01:52:01;;;;;;;;;;;6.30;99.90;;;;;;5050187;28;19925;-47
2022/04/21 01:54:29;;;;;;;;;;;6.20;99.90;;;;;;5049259;28;19925;-48
2022/04/21 01:56:56;;;;;;;;;;;6.20;99.90;;;;;;5049892;28;19928;-49
2022/04/21 01:59:23;;;;;;;;;;;6.20;99.90;;;;;;5049264;28;20311;-48
2022/04/21 02:01:50;;;;;;;;;;;6.20;99.90;;;;;;5050954;28;19925;-48
2022/04/21 02:04:17;;;;;;;;;;;6.20;99.90;;;;;;5050514;28;20390;-49
2022/04/21 02:06:43;;;;;;;;;;;6.10;99.90;;;;;;5051835;28;19925;-47
2022/04/21 02:09:10;;;;;;;;;;;6.20;99.90;;;;;;5050957;28;19925;-47
2022/04/21 02:11:38;;;;;;;;;;;6.20;99.90;;;;;;5049268;28;20020;-48
2022/04/21 02:14:06;;;;;;;;;;;6.10;99.90;;;;;;5049489;28;19951;-48
2022/04/21 02:16:35;;;;;;;;;;;6.10;99.90;;;;;;5049164;28;19929;-48
2022/04/21 02:19:02;;;;;;;;;;;6.00;99.90;;;;;;5050941;28;19973;-48
2022/04/21 02:21:28;;;;;;;;;;;6.00;99.90;;;;;;5051435;28;19924;-48
2022/04/21 02:23:55;;;;;;;;;;;5.90;99.90;;;;;;5050577;28;19932;-48
2022/04/21 02:26:22;;;;;;;;;;;5.90;99.90;;;;;;5050983;28;19925;-48
2022/04/21 02:28:50;;;;;;;;;;;5.80;99.90;;;;;;5051312;28;19971;-48
2022/04/21 02:31:17;;;;;;;;;;;5.70;99.90;;;;;;5055365;28;19986;-48
2022/04/21 02:33:43;;;;;;;;;;;5.70;99.90;;;;;;5054034;28;20440;-47
2022/04/21 02:36:10;;;;;;;;;;;5.60;99.90;;;;;;5052371;28;19979;-47
2022/04/21 02:38:37;;;;;;;;;;;5.60;99.90;;;;;;5048796;28;19979;-47
2022/04/21 02:41:04;;;;;;;;;;;5.60;99.90;;;;;;5054324;28;20382;-47
2022/04/21 02:43:31;;;;;;;;;;;5.60;99.90;;;;;;5054412;28;20297;-47
2022/04/21 02:45:59;;;;;;;;;;;5.50;99.90;;;;;;5053752;28;20042;-48
2022/04/21 02:48:26;;;;;;;;;;;5.50;99.90;;;;;;5042930;28;20280;-48
2022/04/21 02:50:52;;;;;;;;;;;5.60;99.90;;;;;;5054588;28;19997;-47
2022/04/21 02:57:19;;;;;;;;;;;5.50;99.90;;;;;;5051154;28;19991;-47
2022/04/21 02:58:51;;;;;;;;;;;5.50;99.90;;;;;;5052767;28;19935;-48
2022/04/21 03:01:19;;;;;;;;;;;5.50;99.90;;;;;;5058377;28;19971;-46
2022/04/21 03:03:45;;;;;;;;;;;5.80;99.90;;;;;;5053844;28;19924;-48
2022/04/21 03:06:12;;;;;;;;;;;5.90;99.90;;;;;;5053528;28;20306;-48
2022/04/21 03:08:39;;;;;;;;;;;6.00;99.90;;;;;;5054161;28;20023;-47
2022/04/21 03:11:06;;;;;;;;;;;6.10;99.90;;;;;;5052652;28;19944;-48
2022/04/21 03:13:33;;;;;;;;;;;5.90;99.90;;;;;;5052711;28;19974;-47
2022/04/21 03:15:59;;;;;;;;;;;5.90;99.90;;;;;;5053314;28;19929;-46
2022/04/21 03:18:28;;;;;;;;;;;5.80;99.90;;;;;;5052302;28;19928;-48
2022/04/21 03:26:25;;;;;;;;;;;5.30;99.90;;;;;;5044027;28;19932;-48
2022/04/21 03:28:52;;;;;;;;;;;5.30;99.90;;;;;;5052967;28;19931;-47
2022/04/21 03:31:19;;;;;;;;;;;5.20;99.90;;;;;;5053750;28;19925;-48
2022/04/21 03:33:48;;;;;;;;;;;5.10;99.90;;;;;;5053627;28;19929;-48
2022/04/21 03:36:15;;;;;;;;;;;5.00;99.90;;;;;;5053795;28;19929;-48
2022/04/21 03:38:41;;;;;;;;;;;5.20;99.90;;;;;;5052545;28;19925;-48
2022/04/21 03:41:08;;;;;;;;;;;5.10;99.90;;;;;;5052219;28;19924;-46
2022/04/21 03:43:35;;;;;;;;;;;5.00;99.90;;;;;;5052721;28;19987;-48
2022/04/21 03:46:01;;;;;;;;;;;5.00;99.90;;;;;;5051691;28;19925;-47
2022/04/21 03:48:29;;;;;;;;;;;4.90;99.90;;;;;;5049825;28;20288;-48
2022/04/21 03:50:57;;;;;;;;;;;4.90;99.90;;;;;;5051997;28;19925;-47
2022/04/21 03:53:24;;;;;;;;;;;5.00;99.90;;;;;;5053778;28;19959;-46
2022/04/21 03:55:51;;;;;;;;;;;4.80;99.90;;;;;;5052983;28;19929;-48
2022/04/21 03:58:17;;;;;;;;;;;4.70;99.90;;;;;;5075679;22;19924;-57
2022/04/21 04:00:44;;;;;;;;;;;4.70;99.90;;;;;;5072316;28;20013;-56
2022/04/21 04:03:11;;;;;;;;;;;4.70;99.90;;;;;;5070121;28;19925;-57
2022/04/21 04:05:37;;;;;;;;;;;4.70;99.90;;;;;;5064400;28;19954;-57
2022/04/21 04:10:53;;;;;;;;;;;4.70;99.90;;;;;;5064813;28;19951;-56
2022/04/21 04:13:20;;;;;;;;;;;4.80;99.90;;;;;;5066537;28;20394;-57
2022/04/21 04:15:48;;;;;;;;;;;4.80;99.90;;;;;;5068068;28;19970;-57
2022/04/21 04:18:15;;;;;;;;;;;4.80;99.90;;;;;;5067689;28;20499;-57
2022/04/21 04:20:42;;;;;;;;;;;4.90;99.90;;;;;;5059854;28;19943;-57
2022/04/21 04:23:10;;;;;;;;;;;4.80;99.90;;;;;;5059127;28;19977;-58
2022/04/21 04:25:37;;;;;;;;;;;4.80;99.90;;;;;;5062486;28;19970;-57
2022/04/21 04:28:04;;;;;;;;;;;4.80;99.90;;;;;;5071676;28;19994;-56
2022/04/21 04:30:31;;;;;;;;;;;4.90;99.90;;;;;;5066159;28;19925;-58
2022/04/21 04:32:58;;;;;;;;;;;4.90;99.90;;;;;;5065436;28;19932;-56
2022/04/21 04:35:25;;;;;;;;;;;4.90;99.90;;;;;;5063924;28;19925;-57
2022/04/21 04:37:52;;;;;;;;;;;5.00;99.90;;;;;;5062773;28;19960;-57
2022/04/21 04:40:21;;;;;;;;;;;5.00;99.90;;;;;;5062824;28;20015;-57
2022/04/21 04:42:46;;;;;;;;;;;5.20;99.90;;;;;;5064591;28;19925;-57
2022/04/21 04:47:57;;;;;;;;;;;5.60;99.90;;;;;;5070407;28;19926;-57
2022/04/21 04:50:24;;;;;;;;;;;5.60;99.90;;;;;;5062578;28;19971;-57
2022/04/21 04:52:56;;;;;;;;;;;5.70;99.90;;;;;;5055553;28;19924;-59
2022/04/21 04:55:24;;;;;;;;;;;5.50;99.90;;;;;;5061255;28;19991;-59
2022/04/21 04:57:51;;;;;;;;;;;5.50;99.90;;;;;;5066552;28;19932;-58
2022/04/21 05:00:18;;;;;;;;;;;5.50;99.90;;;;;;5067904;28;19967;-57
2022/04/21 05:02:45;;;;;;;;;;;5.60;99.90;;;;;;5063775;28;20341;-57
2022/04/21 05:05:12;;;;;;;;;;;5.70;99.90;;;;;;5065906;28;20016;-57
2022/04/21 05:07:40;;;;;;;;;;;5.90;99.90;;;;;;5060566;28;19928;-57
2022/04/21 05:10:07;;;;;;;;;;;5.90;99.90;;;;;;5067293;28;20412;-57
2022/04/21 05:12:35;;;;;;;;;;;6.00;99.90;;;;;;5065308;28;20028;-56
2022/04/21 05:15:03;;;;;;;;;;;6.10;99.90;;;;;;5060605;28;19928;-57
2022/04/21 05:17:30;;;;;;;;;;;6.10;99.90;;;;;;5054603;28;19936;-59
2022/04/21 05:19:57;;;;;;;;;;;6.40;99.90;;;;;;5062741;28;19925;-58
2022/04/21 05:22:26;;;;;;;;;;;7.20;99.90;;;;;;5062328;28;20383;-59
2022/04/21 05:24:54;;;;;;;;;;;8.90;99.90;;;;;;5064989;28;20410;-57
2022/04/21 05:27:21;;;;;;;;;;;10.70;99.90;;;;;;5065405;28;20279;-58
2022/04/21 05:32:35;;;;;;;;;;;12.20;99.90;;;;;;5061383;28;20065;-58
2022/04/21 05:35:03;;;;;;;;;;;12.40;99.90;;;;;;5064093;28;19964;-58
2022/04/21 05:37:30;;;;;;;;;;;13.30;99.70;;;;;;5055912;28;19964;-59
2022/04/21 05:39:58;;;;;;;;;;;15.00;97.50;;;;;;5065572;28;20238;-58
2022/04/21 05:42:25;;;;;;;;;;;15.70;94.30;;;;;;5070048;28;20274;-59
2022/04/21 05:44:53;;;;;;;;;;;16.70;91.40;;;;;;5058745;28;19978;-59
2022/04/21 05:47:21;;;;;;;;;;;17.00;90.20;;;;;;5050946;28;20467;-60
2022/04/21 05:49:47;;;;;;;;;;;17.90;88.90;;;;;;5051035;28;19925;-58
2022/04/21 05:52:14;;;;;;;;;;;18.90;84.40;;;;;;5060896;28;19993;-59
2022/04/21 05:54:41;;;;;;;;;;;19.10;79.60;;;;;;5065993;28;19990;-59
2022/04/21 05:57:08;;;;;;;;;;;18.30;80.10;;;;;;5068636;28;19977;-59
2022/04/21 05:59:35;;;;;;;;;;;19.50;79.60;;;;;;5067554;28;19929;-58
2022/04/21 06:02:05;;;;;;;;;;;20.80;76.10;;;;;;5060479;28;19936;-59
2022/04/21 06:04:31;;;;;;;;;;;21.90;71.80;;;;;;5054934;28;20317;-59
2022/04/21 06:06:58;;;;;;;;;;;20.40;69.60;;;;;;5062668;28;19950;-59
2022/04/21 06:09:25;;;;;;;;;;;19.30;71.00;;;;;;5050738;28;19990;-60
2022/04/21 06:11:51;;;;;;;;;;;19.10;75.10;;;;;;5052857;28;19983;-58
2022/04/21 06:14:18;;;;;;;;;;;18.40;74.10;;;;;;5067844;28;20335;-58
2022/04/21 06:16:45;;;;;;;;;;;19.10;73.20;;;;;;5055249;28;20057;-59
2022/04/21 06:19:13;;;;;;;;;;;20.60;72.20;;;;;;5060991;28;20297;-59
2022/04/21 06:21:40;;;;;;;;;;;21.50;68.40;;;;;;5066717;28;20417;-61
2022/04/21 06:24:07;;;;;;;;;;;21.50;68.20;;;;;;5059559;28;19924;-59
2022/04/21 06:26:36;;;;;;;;;;;23.90;64.90;;;;;;5060618;28;20002;-59
2022/04/21 06:29:03;;;;;;;;;;;25.20;59.50;;;;;;5050852;28;19936;-59
2022/04/21 06:31:30;;;;;;;;;;;25.10;57.80;;;;;;5050535;28;19925;-59
2022/04/21 06:33:57;;;;;;;;;;;24.50;58.40;;;;;;5061406;28;20238;-59
2022/04/21 06:36:26;;;;;;;;;;;24.70;56.90;;;;;;5065091;28;19995;-59
2022/04/21 06:38:53;;;;;;;;;;;24.80;56.90;;;;;;5063868;28;19944;-58
2022/04/21 06:41:20;;;;;;;;;;;24.60;57.00;;;;;;5055077;28;19971;-59
2022/04/21 06:49:16;;;;;;;;;;;23.60;58.90;;;;;;5051727;28;20323;-60
2022/04/21 06:51:44;;;;;;;;;;;24.50;58.70;;;;;;5059821;28;19983;-60
2022/04/21 06:54:11;;;;;;;;;;;25.30;57.70;;;;;;5062183;28;19932;-60
2022/04/21 06:56:37;;;;;;;;;;;25.50;55.70;;;;;;5054412;28;19937;-60
2022/04/21 06:59:05;;;;;;;;;;;26.20;55.50;;;;;;5057286;28;19931;-60
2022/04/21 07:01:35;;;;;;;;;;;27.00;53.90;;;;;;5050420;28;19931;-62
2022/04/21 07:04:01;;;;;;;;;;;26.90;53.50;;;;;;5053603;28;19971;-61
2022/04/21 07:06:29;;;;;;;;;;;26.60;54.10;;;;;;5060189;28;20349;-61
2022/04/21 07:08:58;;;;;;;;;;;25.70;55.50;;;;;;5057144;28;19978;-60
2022/04/21 07:11:24;;;;;;;;;;;24.90;57.90;;;;;;5051086;28;19924;-61
2022/04/21 07:13:51;;;;;;;;;;;25.60;56.20;;;;;;5053240;28;19990;-61
2022/04/21 07:16:18;;;;;;;;;;;25.60;55.30;;;;;;5055379;28;20410;-61
2022/04/21 07:18:45;;;;;;;;;;;26.80;53.80;;;;;;5060922;28;19932;-59
2022/04/21 07:21:12;;;;;;;;;;;27.20;53.20;;;;;;5055229;28;20287;-62
2022/04/21 07:23:39;;;;;;;;;;;27.60;53.20;;;;;;5055342;28;20002;-61
2022/04/21 07:26:07;;;;;;;;;;;27.10;53.90;;;;;;5069384;28;20277;-61
2022/04/21 07:28:34;;;;;;;;;;;25.70;55.10;;;;;;5072086;28;19924;-61
2022/04/21 07:31:01;;;;;;;;;;;23.90;56.20;;;;;;5068135;28;19990;-62
2022/04/21 07:33:27;;;;;;;;;;;24.80;55.50;;;;;;5065833;28;20004;-61
2022/04/21 07:35:54;;;;;;;;;;;24.60;56.50;;;;;;5058376;28;20363;-65
2022/04/21 07:38:22;;;;;;;;;;;26.20;54.80;;;;;;5065051;28;19990;-62
2022/04/21 07:40:52;;;;;;;;;;;27.60;54.10;;;;;;5065593;28;20018;-61
2022/04/21 07:43:21;;;;;;;;;;;27.90;53.40;;;;;;5065490;28;19932;-61
2022/04/21 07:45:49;;;;;;;;;;;26.90;54.20;;;;;;5053402;28;19932;-62
2022/04/21 07:48:16;;;;;;;;;;;26.90;54.90;;;;;;5058797;28;20436;-61
2022/04/21 07:50:42;;;;;;;;;;;25.80;56.40;;;;;;5073098;28;19978;-62
2022/04/21 07:53:14;;;;;;;;;;;25.80;58.60;;;;;;5060531;28;19929;-61
2022/04/21 07:55:41;;;;;;;;;;;25.50;57.60;;;;;;5061460;28;19931;-62
2022/04/21 07:58:08;;;;;;;;;;;25.00;59.10;;;;;;5057937;28;20444;-61
2022/04/21 08:00:38;;;;;;;;;;;24.60;59.70;;;;;;5067421;28;19932;-61
2022/04/21 08:03:06;;;;;;;;;;;24.90;57.70;;;;;;5052827;28;20298;-62
2022/04/21 08:05:33;;;;;;;;;;;24.20;60.00;;;;;;5062934;28;20385;-60
2022/04/21 08:08:00;;;;;;;;;;;21.70;62.70;;;;;;5064875;28;19928;-61
2022/04/21 08:10:28;;;;;;;;;;;23.60;61.20;;;;;;5071259;28;19990;-61
2022/04/21 08:12:56;;;;;;;;;;;24.50;59.20;;;;;;5071985;28;19932;-60
2022/04/21 08:15:25;;;;;;;;;;;24.30;59.20;;;;;;5072103;28;19924;-60
2022/04/21 08:17:56;;;;;;;;;;;22.00;62.20;;;;;;5072320;28;19971;-61
2022/04/21 08:20:23;;;;;;;;;;;22.20;63.70;;;;;;5071453;28;20013;-61
2022/04/21 08:22:50;;;;;;;;;;;23.80;59.20;;;;;;5071782;28;19970;-61
2022/04/21 08:33:51;;;;;;;;;;;24.60;58.50;;;;;;5046300;28;19920;-60
2022/04/21 08:36:18;;;;;;;;;;;23.00;60.80;;;;;;5072162;28;19928;-61
2022/04/21 08:38:45;;;;;;;;;;;24.90;59.00;;;;;;5072078;28;19933;-62
2022/04/21 08:41:15;;;;;;;;;;;25.50;57.80;;;;;;5071666;28;20448;-62
2022/04/21 08:43:41;;;;;;;;;;;24.80;57.90;;;;;;5064262;28;19929;-62
2022/04/21 08:46:09;;;;;;;;;;;25.80;58.00;;;;;;5059623;28;20390;-61
2022/04/21 08:48:37;;;;;;;;;;;26.30;54.50;;;;;;5056908;28;20409;-61
2022/04/21 08:51:08;;;;;;;;;;;26.50;55.20;;;;;;5056698;28;19989;-62
2022/04/21 08:53:35;;;;;;;;;;;26.20;55.50;;;;;;5070435;28;19924;-61
2022/04/21 08:56:02;;;;;;;;;;;24.80;57.50;;;;;;5071079;28;19978;-61
2022/04/21 08:58:28;;;;;;;;;;;24.10;58.90;;;;;;5070537;28;19933;-61
2022/04/21 09:00:57;;;;;;;;;;;23.30;58.00;;;;;;5066634;28;20486;-61
2022/04/21 09:03:24;;;;;;;;;;;23.80;57.50;;;;;;5052537;28;19931;-61
2022/04/21 09:05:50;;;;;;;;;;;24.60;57.30;;;;;;5052618;28;19969;-62
2022/04/21 09:08:22;;;;;;;;;;;24.90;57.30;;;;;;5061897;28;19971;-61
2022/04/21 09:11:01;;;;;;;;;;;24.50;56.50;;;;;;5062752;28;19929;-60
2022/04/21 09:13:31;;;;;;;;;;;24.80;56.90;;;;;;5051791;28;20408;-62
2022/04/21 09:16:01;;;;;;;;;;;25.20;56.20;;;;;;5053964;28;19933;-61
2022/04/21 09:18:35;;;;;;;;;;;25.90;55.70;;;;;;5051510;28;19924;-61
2022/04/21 09:21:06;;;;;;;;;;;26.20;54.00;;;;;;5055838;28;20365;-60
2022/04/21 09:23:34;;;;;;;;;;;24.70;55.20;;;;;;5052645;28;19937;-60
2022/04/21 09:26:07;;;;;;;;;;;26.00;56.00;;;;;;5062064;28;19925;-61
2022/04/21 09:28:34;;;;;;;;;;;25.40;55.00;;;;;;5051507;28;20266;-61
2022/04/21 09:31:01;;;;;;;;;;;24.40;56.60;;;;;;5051189;28;20333;-61
2022/04/21 09:33:29;;;;;;;;;;;23.40;56.90;;;;;;5051100;28;19933;-61
2022/04/21 09:35:57;;;;;;;;;;;22.40;60.30;;;;;;5053874;28;19950;-61
2022/04/21 09:38:24;;;;;;;;;;;22.50;59.70;;;;;;5056631;28;19925;-62
2022/04/21 09:40:52;;;;;;;;;;;23.50;58.10;;;;;;5067206;28;19970;-61
2022/04/21 09:43:27;;;;;;;;;;;24.60;57.10;;;;;;5052749;28;20039;-61
2022/04/21 09:46:08;;;;;;;;;;;24.70;56.20;;;;;;5066874;28;19929;-59
2022/04/21 09:48:35;;;;;;;;;;;24.40;56.90;;;;;;5069992;28;19920;-59
2022/04/21 09:51:07;;;;;;;;;;;24.60;56.00;;;;;;5054839;28;19970;-59
2022/04/21 09:53:45;;;;;;;;;;;24.20;57.30;;;;;;5062064;28;19933;-60
2022/04/21 09:56:13;;;;;;;;;;;25.30;56.70;;;;;;5050973;28;19928;-61
2022/04/21 09:58:41;;;;;;;;;;;25.20;55.80;;;;;;5055080;28;19929;-59
2022/04/21 10:01:08;;;;;;;;;;;25.10;58.10;;;;;;5050956;28;19925;-58
2022/04/21 10:03:35;;;;;;;;;;;24.60;56.30;;;;;;5050971;28;20371;-59
2022/04/21 10:06:02;;;;;;;;;;;24.00;57.00;;;;;;5050916;28;20352;-60
2022/04/21 10:08:30;;;;;;;;;;;23.10;59.50;;;;;;5054952;28;20349;-59
2022/04/21 10:10:57;;;;;;;;;;;23.00;60.90;;;;;;5065499;28;20443;-60
2022/04/21 10:13:25;;;;;;;;;;;23.60;58.90;;;;;;5066349;28;19924;-60
2022/04/21 10:15:52;;;;;;;;;;;24.50;58.80;;;;;;5063088;28;19924;-60
2022/04/21 10:18:19;;;;;;;;;;;24.70;56.00;;;;;;5062317;28;19929;-59
2022/04/21 10:20:47;;;;;;;;;;;25.40;57.10;;;;;;5070305;28;20353;-61
2022/04/21 10:23:17;;;;;;;;;;;24.30;56.60;;;;;;5070552;28;20352;-61
2022/04/21 10:25:44;;;;;;;;;;;24.50;57.60;;;;;;5070654;28;19925;-60
2022/04/21 10:28:25;;;;;;;;;;;23.40;57.90;;;;;;5063855;28;19947;-61
2022/04/21 10:30:53;;;;;;;;;;;23.80;58.60;;;;;;5044430;28;19970;-62
2022/04/21 10:33:40;;;;;;;;;;;24.90;58.20;;;;;;5070052;28;20006;-61
2022/04/21 10:36:07;;;;;;;;;;;24.50;56.70;;;;;;5070374;28;19982;-61
2022/04/21 10:38:33;;;;;;;;;;;23.90;57.40;;;;;;5057221;28;19924;-61
2022/04/21 10:41:03;;;;;;;;;;;24.40;58.70;;;;;;5050736;28;19929;-61
2022/04/21 10:43:48;;;;;;;;;;;25.30;57.60;;;;;;5064894;28;19937;-60
2022/04/21 10:46:20;;;;;;;;;;;25.50;54.70;;;;;;5069760;28;19924;-61
2022/04/21 10:48:46;;;;;;;;;;;25.50;58.10;;;;;;5056191;28;20568;-61
2022/04/21 10:51:13;;;;;;;;;;;24.90;56.50;;;;;;5066923;28;19929;-61
2022/04/21 10:59:28;;;;;;;;;;;20.80;62.20;;;;;;5074017;28;20343;-60
2022/04/21 11:02:10;;;;;;;;;;;20.40;65.00;;;;;;5073710;28;20334;-59
2022/04/21 11:04:37;;;;;;;;;;;19.80;65.30;;;;;;5063582;28;20367;-59
2022/04/21 11:07:09;;;;;;;;;;;19.80;67.20;;;;;;5072161;28;19932;-59
2022/04/21 11:09:37;;;;;;;;;;;19.80;64.50;;;;;;5073414;28;19986;-59
2022/04/21 11:12:05;;;;;;;;;;;20.20;65.70;;;;;;5073328;28;20386;-56
2022/04/21 11:14:33;;;;;;;;;;;19.50;66.50;;;;;;5073469;28;19971;-59
2022/04/21 11:17:01;;;;;;;;;;;19.40;68.70;;;;;;5073422;28;20421;-59
2022/04/21 11:19:35;;;;;;;;;;;19.50;67.50;;;;;;5073477;28;20009;-59
2022/04/21 11:22:02;;;;;;;;;;;19.40;65.50;;;;;;5071849;28;19989;-59
2022/04/21 11:24:49;;;;;;;;;;;19.20;69.00;;;;;;5073754;28;19970;-59
2022/04/21 11:27:16;;;;;;;;;;;19.20;69.70;;;;;;5064452;28;19925;-59
2022/04/21 11:29:43;;;;;;;;;;;19.50;69.60;;;;;;5053333;28;19929;-58
2022/04/21 11:32:15;;;;;;;;;;;19.70;65.60;;;;;;5065940;28;19989;-59
2022/04/21 11:34:42;;;;;;;;;;;20.10;64.40;;;;;;5073582;28;19928;-59
2022/04/21 11:37:09;;;;;;;;;;;20.20;62.80;;;;;;5065124;28;19932;-59
2022/04/21 11:39:38;;;;;;;;;;;20.20;65.50;;;;;;5058557;28;20456;-59
2022/04/21 11:42:05;;;;;;;;;;;20.10;65.50;;;;;;5055020;28;20256;-59
2022/04/21 11:44:32;;;;;;;;;;;19.50;65.10;;;;;;5073216;28;20340;-57
2022/04/21 11:47:00;;;;;;;;;;;19.40;66.40;;;;;;5072617;28;19978;-60
2022/04/21 11:49:28;;;;;;;;;;;19.40;66.50;;;;;;5073358;28;19956;-59
2022/04/21 11:51:55;;;;;;;;;;;19.30;69.90;;;;;;5073090;28;19932;-57
2022/04/21 11:54:21;;;;;;;;;;;19.30;67.90;;;;;;5068630;28;19991;-59
2022/04/21 11:56:50;;;;;;;;;;;19.10;64.40;;;;;;5059249;28;20787;-59
2022/04/21 11:59:17;;;;;;;;;;;18.60;66.70;;;;;;5054493;28;19929;-56
2022/04/21 12:07:22;;;;;;;;;;;18.80;70.50;;;;;;5028760;28;19936;-57
2022/04/21 12:09:50;;;;;;;;;;;19.10;67.30;;;;;;5053275;28;19929;-57
2022/04/21 12:12:21;;;;;;;;;;;19.20;68.60;;;;;;5065158;28;20402;-59
2022/04/21 12:14:48;;;;;;;;;;;19.30;73.70;;;;;;5064270;28;20420;-57
2022/04/21 12:17:16;;;;;;;;;;;19.30;69.90;;;;;;5054183;28;19924;-59
2022/04/21 12:19:46;;;;;;;;;;;19.30;67.10;;;;;;5055803;28;19978;-58
2022/04/21 12:22:13;;;;;;;;;;;19.20;66.30;;;;;;5067666;28;19977;-58
2022/04/21 12:24:41;;;;;;;;;;;19.10;66.60;;;;;;5060849;28;19933;-57
2022/04/21 12:27:12;;;;;;;;;;;18.90;67.50;;;;;;5051847;28;20420;-57
2022/04/21 12:29:45;;;;;;;;;;;19.00;68.80;;;;;;5062016;28;20356;-58
2022/04/21 12:32:12;;;;;;;;;;;19.10;67.80;;;;;;5054333;28;19975;-58
2022/04/21 12:34:40;;;;;;;;;;;19.30;68.30;;;;;;5067034;28;20383;-58
2022/04/21 12:37:09;;;;;;;;;;;19.30;67.70;;;;;;5052436;28;20407;-58
2022/04/21 12:39:37;;;;;;;;;;;19.00;66.30;;;;;;5055561;28;19925;-57
2022/04/21 12:42:04;;;;;;;;;;;18.80;67.80;;;;;;5059983;28;20018;-58
2022/04/21 12:44:32;;;;;;;;;;;19.10;68.00;;;;;;5063760;28;20310;-58
2022/04/21 12:47:00;;;;;;;;;;;18.70;64.40;;;;;;5071873;28;19977;-58
2022/04/21 12:49:49;;;;;;;;;;;18.50;67.80;;;;;;5071246;28;19939;-57
2022/04/21 12:52:27;;;;;;;;;;;18.50;65.20;;;;;;5061806;28;19986;-58
2022/04/21 12:54:53;;;;;;;;;;;18.40;66.70;;;;;;5068753;28;19928;-58
2022/04/21 12:57:20;;;;;;;;;;;18.60;68.40;;;;;;5068884;28;19928;-58
2022/04/21 12:59:47;;;;;;;;;;;18.80;67.20;;;;;;5058824;28;19970;-58
2022/04/21 13:02:14;;;;;;;;;;;18.90;67.50;;;;;;5051801;28;19986;-58
2022/04/21 13:04:41;;;;;;;;;;;18.90;68.00;;;;;;5056439;28;19998;-58
2022/04/21 13:07:09;;;;;;;;;;;19.10;67.00;;;;;;5072197;28;20360;-58
2022/04/21 13:09:37;;;;;;;;;;;18.90;66.60;;;;;;5068949;28;19924;-58
2022/04/21 13:12:05;;;;;;;;;;;18.60;66.90;;;;;;5058164;28;21606;-57
2022/04/21 13:14:32;;;;;;;;;;;18.90;67.60;;;;;;5060102;28;19974;-58
2022/04/21 13:16:59;;;;;;;;;;;18.60;67.00;;;;;;5064282;28;19986;-57
2022/04/21 13:19:26;;;;;;;;;;;18.50;67.10;;;;;;5051112;28;19925;-58
2022/04/21 13:21:55;;;;;;;;;;;18.80;69.10;;;;;;5051371;28;19979;-58
2022/04/21 13:24:22;;;;;;;;;;;18.60;67.80;;;;;;5055410;28;19932;-57
2022/04/21 13:26:50;;;;;;;;;;;18.30;67.70;;;;;;5052585;28;19947;-58
2022/04/21 13:29:17;;;;;;;;;;;18.70;68.80;;;;;;5052354;28;19945;-57
2022/04/21 13:34:28;;;;;;;;;;;18.80;67.80;;;;;;5067853;28;19966;-57
2022/04/21 13:36:55;;;;;;;;;;;19.00;68.70;;;;;;5064393;28;20705;-57
2022/04/21 13:39:22;;;;;;;;;;;19.10;67.70;;;;;;5054015;28;20345;-58
2022/04/21 13:41:48;;;;;;;;;;;19.20;66.00;;;;;;5057443;28;19925;-57
2022/04/21 13:44:17;;;;;;;;;;;19.30;69.20;;;;;;5050551;28;19928;-57
2022/04/21 13:46:44;;;;;;;;;;;19.20;65.40;;;;;;5050347;28;19978;-57
2022/04/21 13:49:11;;;;;;;;;;;18.80;65.10;;;;;;5050516;28;20130;-57
2022/04/21 13:51:37;;;;;;;;;;;18.80;68.30;;;;;;5050403;28;19933;-58
2022/04/21 13:54:04;;;;;;;;;;;18.80;65.20;;;;;;5050692;28;19937;-57
2022/04/21 13:56:31;;;;;;;;;;;18.70;66.70;;;;;;5054443;28;20402;-58
2022/04/21 13:58:58;;;;;;;;;;;18.40;67.10;;;;;;5050140;28;19998;-57
2022/04/21 14:01:26;;;;;;;;;;;18.30;66.70;;;;;;5049992;28;19925;-57
2022/04/21 14:03:53;;;;;;;;;;;18.40;67.90;;;;;;5053459;28;19978;-57
2022/04/21 14:06:20;;;;;;;;;;;18.60;67.90;;;;;;5051823;28;19924;-57
2022/04/21 14:08:47;;;;;;;;;;;18.70;66.40;;;;;;5050297;28;19925;-57
2022/04/21 14:11:14;;;;;;;;;;;18.70;67.60;;;;;;5051199;28;19924;-58
2022/04/21 14:13:41;;;;;;;;;;;18.80;69.50;;;;;;5053756;28;19928;-58
2022/04/21 14:16:08;;;;;;;;;;;18.80;66.50;;;;;;5050572;28;19925;-57
2022/04/21 14:18:36;;;;;;;;;;;18.80;69.00;;;;;;5051323;28;19929;-57
2022/04/21 14:21:03;;;;;;;;;;;19.10;69.80;;;;;;5069172;28;19928;-58
2022/04/21 14:23:35;;;;;;;;;;;19.30;68.50;;;;;;5063698;28;19931;-57
2022/04/21 14:26:03;;;;;;;;;;;19.20;67.80;;;;;;5067745;28;19968;-57
2022/04/21 14:28:29;;;;;;;;;;;19.20;69.60;;;;;;5072171;28;19989;-57
2022/04/21 14:30:56;;;;;;;;;;;19.20;68.80;;;;;;5061805;28;19925;-57
2022/04/21 14:33:25;;;;;;;;;;;19.00;70.10;;;;;;5054021;28;19954;-57
2022/04/21 14:35:53;;;;;;;;;;;18.90;68.60;;;;;;5067663;28;19935;-57
2022/04/21 14:44:06;;;;;;;;;;;18.90;68.70;;;;;;5072950;28;20017;-57
2022/04/21 14:46:35;;;;;;;;;;;18.60;67.70;;;;;;5072015;28;19925;-58
2022/04/21 14:49:02;;;;;;;;;;;18.50;69.40;;;;;;5072430;28;19944;-57
2022/04/21 14:51:31;;;;;;;;;;;18.70;69.10;;;;;;5057056;28;19925;-57
2022/04/21 14:53:58;;;;;;;;;;;18.70;67.80;;;;;;5053649;28;19924;-57
2022/04/21 14:56:25;;;;;;;;;;;18.80;68.40;;;;;;5067357;28;19978;-57
2022/04/21 14:58:51;;;;;;;;;;;19.00;69.40;;;;;;5071769;28;19939;-57
2022/04/21 15:01:18;;;;;;;;;;;19.10;71.60;;;;;;5069338;28;19978;-57
2022/04/21 15:03:45;;;;;;;;;;;19.00;70.20;;;;;;5053539;28;19970;-57
2022/04/21 15:06:12;;;;;;;;;;;18.80;67.50;;;;;;5060215;28;19932;-57
2022/04/21 15:08:40;;;;;;;;;;;18.60;69.00;;;;;;5053411;28;20019;-57
2022/04/21 15:11:07;;;;;;;;;;;18.50;68.20;;;;;;5053549;28;19924;-56
2022/04/21 15:13:34;;;;;;;;;;;18.60;70.30;;;;;;5058765;28;19994;-56
2022/04/21 15:16:01;;;;;;;;;;;18.40;69.40;;;;;;5054132;28;20024;-56
2022/04/21 15:18:28;;;;;;;;;;;18.60;69.00;;;;;;5062111;28;19928;-56
2022/04/21 15:20:55;;;;;;;;;;;18.50;69.00;;;;;;5072962;28;19975;-55
2022/04/21 15:23:21;;;;;;;;;;;18.50;70.10;;;;;;5070287;28;19924;-56
2022/04/21 15:25:51;;;;;;;;;;;18.30;70.70;;;;;;5054188;28;19970;-56